sensor_id;sensor_type;location;lat;lon;timestamp;P1;durP1;ratioP1;P2;durP2;ratioP2
2031;SDS011;27625;50.422;7.944;2023-02-28T00:02:37;4.73;;;3.90;;
2031;SDS011;27625;50.422;7.944;2023-02-28T00:05:05;5.50;;;4.50;;
2031;SDS011;27625;50.422;7.944;2023-02-28T00:07:34;6.50;;;4.80;;
2031;SDS011;27625;50.422;7.944;2023-02-28T00:10:02;6.80;;;4.93;;
2031;SDS011;27625;50.422;7.944;2023-02-28T00:12:35;9.40;;;5.17;;
2031;SDS011;27625;50.422;7.944;2023-02-28T00:15:05;5.83;;;5.10;;
2031;SDS011;27625;50.422;7.944;2023-02-28T00:17:33;9.70;;;5.33;;
2031;SDS011;27625;50.422;7.944;2023-02-28T00:20:01;6.60;;;4.90;;
2031;SDS011;27625;50.422;7.944;2023-02-28T00:25:14;5.97;;;5.10;;
2031;SDS011;27625;50.422;7.944;2023-02-28T00:27:42;6.00;;;4.63;;
2031;SDS011;27625;50.422;7.944;2023-02-28T00:30:10;6.53;;;4.93;;
2031;SDS011;27625;50.422;7.944;2023-02-28T00:32:39;5.70;;;5.07;;
2031;SDS011;27625;50.422;7.944;2023-02-28T00:35:08;7.20;;;5.73;;
2031;SDS011;27625;50.422;7.944;2023-02-28T00:37:37;6.80;;;5.20;;
2031;SDS011;27625;50.422;7.944;2023-02-28T00:40:05;6.97;;;5.50;;
2031;SDS011;27625;50.422;7.944;2023-02-28T00:42:34;5.93;;;4.93;;
2031;SDS011;27625;50.422;7.944;2023-02-28T00:45:09;5.93;;;5.07;;
2031;SDS011;27625;50.422;7.944;2023-02-28T00:47:38;7.97;;;5.90;;
2031;SDS011;27625;50.422;7.944;2023-02-28T00:50:05;7.03;;;4.70;;
2031;SDS011;27625;50.422;7.944;2023-02-28T00:52:33;6.47;;;5.20;;
2031;SDS011;27625;50.422;7.944;2023-02-28T00:55:02;8.03;;;5.77;;
2031;SDS011;27625;50.422;7.944;2023-02-28T00:57:29;7.30;;;5.80;;
2031;SDS011;27625;50.422;7.944;2023-02-28T01:02:33;6.87;;;6.00;;
2031;SDS011;27625;50.422;7.944;2023-02-28T01:04:59;8.97;;;6.07;;
2031;SDS011;27625;50.422;7.944;2023-02-28T01:07:33;6.77;;;5.90;;
2031;SDS011;27625;50.422;7.944;2023-02-28T01:10:01;8.40;;;5.47;;
2031;SDS011;27625;50.422;7.944;2023-02-28T01:12:30;7.37;;;5.73;;
2031;SDS011;27625;50.422;7.944;2023-02-28T01:14:57;9.03;;;6.07;;
2031;SDS011;27625;50.422;7.944;2023-02-28T01:17:24;7.93;;;6.03;;
2031;SDS011;27625;50.422;7.944;2023-02-28T01:19:53;8.33;;;6.40;;
2031;SDS011;27625;50.422;7.944;2023-02-28T01:22:23;8.77;;;6.47;;
2031;SDS011;27625;50.422;7.944;2023-02-28T01:24:53;8.87;;;5.73;;
2031;SDS011;27625;50.422;7.944;2023-02-28T01:27:25;7.60;;;6.13;;
2031;SDS011;27625;50.422;7.944;2023-02-28T01:29:52;7.97;;;6.30;;
2031;SDS011;27625;50.422;7.944;2023-02-28T01:32:19;8.43;;;5.50;;
2031;SDS011;27625;50.422;7.944;2023-02-28T01:34:46;8.37;;;6.10;;
2031;SDS011;27625;50.422;7.944;2023-02-28T01:37:13;10.30;;;6.20;;
2031;SDS011;27625;50.422;7.944;2023-02-28T01:39:44;6.73;;;6.03;;
2031;SDS011;27625;50.422;7.944;2023-02-28T01:42:13;7.00;;;5.97;;
2031;SDS011;27625;50.422;7.944;2023-02-28T01:47:27;6.70;;;5.37;;
2031;SDS011;27625;50.422;7.944;2023-02-28T01:49:56;6.63;;;5.93;;
2031;SDS011;27625;50.422;7.944;2023-02-28T01:52:25;7.77;;;6.20;;
2031;SDS011;27625;50.422;7.944;2023-02-28T01:54:53;5.97;;;5.13;;
2031;SDS011;27625;50.422;7.944;2023-02-28T01:57:25;6.77;;;5.67;;
2031;SDS011;27625;50.422;7.944;2023-02-28T01:59:56;6.00;;;5.13;;
2031;SDS011;27625;50.422;7.944;2023-02-28T02:02:27;5.77;;;5.17;;
2031;SDS011;27625;50.422;7.944;2023-02-28T02:04:54;7.07;;;5.43;;
2031;SDS011;27625;50.422;7.944;2023-02-28T02:07:24;5.47;;;4.83;;
2031;SDS011;27625;50.422;7.944;2023-02-28T02:09:58;6.03;;;5.03;;
2031;SDS011;27625;50.422;7.944;2023-02-28T02:12:30;8.53;;;5.20;;
2031;SDS011;27625;50.422;7.944;2023-02-28T02:17:38;5.80;;;4.80;;
2031;SDS011;27625;50.422;7.944;2023-02-28T02:23:07;6.23;;;5.00;;
2031;SDS011;27625;50.422;7.944;2023-02-28T02:25:54;6.47;;;5.30;;
2031;SDS011;27625;50.422;7.944;2023-02-28T02:28:34;6.07;;;5.40;;
2031;SDS011;27625;50.422;7.944;2023-02-28T02:37:01;6.17;;;5.27;;
2031;SDS011;27625;50.422;7.944;2023-02-28T02:39:38;8.67;;;4.87;;
2031;SDS011;27625;50.422;7.944;2023-02-28T02:42:09;7.17;;;5.37;;
2031;SDS011;27625;50.422;7.944;2023-02-28T02:44:40;6.03;;;5.43;;
2031;SDS011;27625;50.422;7.944;2023-02-28T02:47:12;6.27;;;4.37;;
2031;SDS011;27625;50.422;7.944;2023-02-28T02:49:46;7.50;;;5.00;;
2031;SDS011;27625;50.422;7.944;2023-02-28T02:52:15;5.93;;;4.90;;
2031;SDS011;27625;50.422;7.944;2023-02-28T02:54:46;5.13;;;4.63;;
2031;SDS011;27625;50.422;7.944;2023-02-28T02:57:16;6.00;;;5.50;;
2031;SDS011;27625;50.422;7.944;2023-02-28T02:59:45;7.03;;;5.20;;
2031;SDS011;27625;50.422;7.944;2023-02-28T03:02:15;6.70;;;5.20;;
2031;SDS011;27625;50.422;7.944;2023-02-28T03:04:48;7.80;;;5.60;;
2031;SDS011;27625;50.422;7.944;2023-02-28T03:07:23;6.80;;;5.53;;
2031;SDS011;27625;50.422;7.944;2023-02-28T03:09:56;8.03;;;6.60;;
2031;SDS011;27625;50.422;7.944;2023-02-28T03:12:35;9.17;;;5.40;;
2031;SDS011;27625;50.422;7.944;2023-02-28T03:15:13;6.30;;;5.33;;
2031;SDS011;27625;50.422;7.944;2023-02-28T03:17:49;7.27;;;5.83;;
2031;SDS011;27625;50.422;7.944;2023-02-28T03:20:30;6.70;;;5.80;;
2031;SDS011;27625;50.422;7.944;2023-02-28T03:23:10;7.37;;;6.00;;
2031;SDS011;27625;50.422;7.944;2023-02-28T03:25:45;7.40;;;5.23;;
2031;SDS011;27625;50.422;7.944;2023-02-28T03:28:30;6.67;;;5.60;;
2031;SDS011;27625;50.422;7.944;2023-02-28T03:30:59;6.80;;;5.20;;
2031;SDS011;27625;50.422;7.944;2023-02-28T03:33:31;6.53;;;5.67;;
2031;SDS011;27625;50.422;7.944;2023-02-28T03:36:02;9.07;;;6.10;;
2031;SDS011;27625;50.422;7.944;2023-02-28T03:38:33;6.80;;;6.10;;
2031;SDS011;27625;50.422;7.944;2023-02-28T03:41:09;7.10;;;6.33;;
2031;SDS011;27625;50.422;7.944;2023-02-28T03:43:41;6.50;;;5.60;;
2031;SDS011;27625;50.422;7.944;2023-02-28T03:46:12;7.47;;;6.43;;
2031;SDS011;27625;50.422;7.944;2023-02-28T03:48:40;7.70;;;6.20;;
2031;SDS011;27625;50.422;7.944;2023-02-28T03:51:12;9.03;;;6.27;;
2031;SDS011;27625;50.422;7.944;2023-02-28T03:53:44;8.17;;;6.40;;
2031;SDS011;27625;50.422;7.944;2023-02-28T03:56:14;8.10;;;6.67;;
2031;SDS011;27625;50.422;7.944;2023-02-28T03:58:44;8.83;;;6.10;;
2031;SDS011;27625;50.422;7.944;2023-02-28T04:01:15;6.87;;;6.23;;
2031;SDS011;27625;50.422;7.944;2023-02-28T04:03:47;7.93;;;6.17;;
2031;SDS011;27625;50.422;7.944;2023-02-28T04:06:17;7.40;;;6.03;;
2031;SDS011;27625;50.422;7.944;2023-02-28T04:08:48;7.20;;;6.30;;
2031;SDS011;27625;50.422;7.944;2023-02-28T04:11:18;6.93;;;5.77;;
2031;SDS011;27625;50.422;7.944;2023-02-28T04:13:49;7.40;;;6.00;;
2031;SDS011;27625;50.422;7.944;2023-02-28T04:16:18;9.30;;;6.40;;
2031;SDS011;27625;50.422;7.944;2023-02-28T04:18:45;7.07;;;6.13;;
2031;SDS011;27625;50.422;7.944;2023-02-28T04:21:11;6.80;;;5.93;;
2031;SDS011;27625;50.422;7.944;2023-02-28T04:23:40;7.77;;;6.30;;
2031;SDS011;27625;50.422;7.944;2023-02-28T04:26:06;8.60;;;6.20;;
2031;SDS011;27625;50.422;7.944;2023-02-28T04:28:33;9.30;;;6.30;;
2031;SDS011;27625;50.422;7.944;2023-02-28T04:31:01;7.10;;;5.53;;
2031;SDS011;27625;50.422;7.944;2023-02-28T04:33:31;6.07;;;5.30;;
2031;SDS011;27625;50.422;7.944;2023-02-28T04:35:59;8.10;;;5.73;;
2031;SDS011;27625;50.422;7.944;2023-02-28T04:38:27;6.87;;;6.17;;
2031;SDS011;27625;50.422;7.944;2023-02-28T04:40:58;6.97;;;6.27;;
2031;SDS011;27625;50.422;7.944;2023-02-28T04:43:25;7.23;;;6.00;;
2031;SDS011;27625;50.422;7.944;2023-02-28T04:45:52;6.60;;;5.50;;
2031;SDS011;27625;50.422;7.944;2023-02-28T04:48:21;6.83;;;5.67;;
2031;SDS011;27625;50.422;7.944;2023-02-28T04:50:49;6.60;;;5.87;;
2031;SDS011;27625;50.422;7.944;2023-02-28T04:53:16;5.90;;;5.17;;
2031;SDS011;27625;50.422;7.944;2023-02-28T04:55:43;7.23;;;5.57;;
2031;SDS011;27625;50.422;7.944;2023-02-28T04:58:11;7.17;;;5.93;;
2031;SDS011;27625;50.422;7.944;2023-02-28T05:00:38;7.27;;;6.10;;
2031;SDS011;27625;50.422;7.944;2023-02-28T05:03:05;6.73;;;5.30;;
2031;SDS011;27625;50.422;7.944;2023-02-28T05:05:32;6.27;;;5.10;;
2031;SDS011;27625;50.422;7.944;2023-02-28T05:07:59;6.07;;;5.30;;
2031;SDS011;27625;50.422;7.944;2023-02-28T05:10:25;7.77;;;5.37;;
2031;SDS011;27625;50.422;7.944;2023-02-28T05:12:52;7.37;;;5.73;;
2031;SDS011;27625;50.422;7.944;2023-02-28T05:15:20;6.07;;;5.30;;
2031;SDS011;27625;50.422;7.944;2023-02-28T05:17:47;6.67;;;5.87;;
2031;SDS011;27625;50.422;7.944;2023-02-28T05:20:16;6.13;;;5.43;;
2031;SDS011;27625;50.422;7.944;2023-02-28T05:22:43;5.77;;;5.07;;
2031;SDS011;27625;50.422;7.944;2023-02-28T05:25:10;6.30;;;5.40;;
2031;SDS011;27625;50.422;7.944;2023-02-28T05:27:38;6.80;;;5.53;;
2031;SDS011;27625;50.422;7.944;2023-02-28T05:30:06;9.73;;;6.37;;
2031;SDS011;27625;50.422;7.944;2023-02-28T05:32:37;6.70;;;5.63;;
2031;SDS011;27625;50.422;7.944;2023-02-28T05:35:08;6.77;;;5.70;;
2031;SDS011;27625;50.422;7.944;2023-02-28T05:37:35;6.70;;;5.40;;
2031;SDS011;27625;50.422;7.944;2023-02-28T05:40:02;8.17;;;6.10;;
2031;SDS011;27625;50.422;7.944;2023-02-28T05:42:31;7.40;;;6.10;;
2031;SDS011;27625;50.422;7.944;2023-02-28T05:44:58;6.20;;;5.43;;
2031;SDS011;27625;50.422;7.944;2023-02-28T05:47:24;7.27;;;5.23;;
2031;SDS011;27625;50.422;7.944;2023-02-28T05:49:52;5.67;;;5.07;;
2031;SDS011;27625;50.422;7.944;2023-02-28T05:52:21;7.93;;;4.90;;
2031;SDS011;27625;50.422;7.944;2023-02-28T05:54:49;6.90;;;5.27;;
2031;SDS011;27625;50.422;7.944;2023-02-28T05:57:18;8.47;;;5.33;;
2031;SDS011;27625;50.422;7.944;2023-02-28T05:59:44;5.83;;;4.87;;
2031;SDS011;27625;50.422;7.944;2023-02-28T06:02:12;7.23;;;5.43;;
2031;SDS011;27625;50.422;7.944;2023-02-28T06:04:41;8.53;;;5.73;;
2031;SDS011;27625;50.422;7.944;2023-02-28T06:07:11;6.47;;;5.60;;
2031;SDS011;27625;50.422;7.944;2023-02-28T06:12:16;7.80;;;5.10;;
2031;SDS011;27625;50.422;7.944;2023-02-28T06:14:43;6.47;;;5.20;;
2031;SDS011;27625;50.422;7.944;2023-02-28T06:17:11;6.63;;;5.27;;
2031;SDS011;27625;50.422;7.944;2023-02-28T06:20:25;6.77;;;4.97;;
2031;SDS011;27625;50.422;7.944;2023-02-28T06:23:02;5.80;;;5.20;;
2031;SDS011;27625;50.422;7.944;2023-02-28T06:25:39;6.60;;;4.57;;
2031;SDS011;27625;50.422;7.944;2023-02-28T06:28:11;6.27;;;5.30;;
2031;SDS011;27625;50.422;7.944;2023-02-28T06:30:38;6.57;;;5.07;;
2031;SDS011;27625;50.422;7.944;2023-02-28T06:33:04;7.17;;;6.23;;
2031;SDS011;27625;50.422;7.944;2023-02-28T06:35:32;9.27;;;5.57;;
2031;SDS011;27625;50.422;7.944;2023-02-28T06:37:59;8.17;;;5.90;;
2031;SDS011;27625;50.422;7.944;2023-02-28T06:40:27;7.40;;;5.20;;
2031;SDS011;27625;50.422;7.944;2023-02-28T06:42:57;7.10;;;5.83;;
2031;SDS011;27625;50.422;7.944;2023-02-28T06:45:24;6.17;;;5.57;;
2031;SDS011;27625;50.422;7.944;2023-02-28T06:47:57;5.80;;;4.60;;
2031;SDS011;27625;50.422;7.944;2023-02-28T06:50:25;8.43;;;5.57;;
2031;SDS011;27625;50.422;7.944;2023-02-28T06:52:54;6.90;;;5.13;;
2031;SDS011;27625;50.422;7.944;2023-02-28T06:55:26;5.97;;;4.93;;
2031;SDS011;27625;50.422;7.944;2023-02-28T06:57:54;5.90;;;4.67;;
2031;SDS011;27625;50.422;7.944;2023-02-28T07:00:21;6.93;;;4.60;;
2031;SDS011;27625;50.422;7.944;2023-02-28T07:02:47;5.83;;;4.90;;
2031;SDS011;27625;50.422;7.944;2023-02-28T07:05:14;6.70;;;4.93;;
2031;SDS011;27625;50.422;7.944;2023-02-28T07:07:41;6.60;;;5.00;;
2031;SDS011;27625;50.422;7.944;2023-02-28T07:10:10;8.10;;;5.73;;
2031;SDS011;27625;50.422;7.944;2023-02-28T07:12:40;4.70;;;4.23;;
2031;SDS011;27625;50.422;7.944;2023-02-28T07:15:08;7.43;;;5.10;;
2031;SDS011;27625;50.422;7.944;2023-02-28T07:17:35;10.47;;;5.70;;
2031;SDS011;27625;50.422;7.944;2023-02-28T07:20:04;5.80;;;4.90;;
2031;SDS011;27625;50.422;7.944;2023-02-28T07:22:31;6.40;;;5.03;;
2031;SDS011;27625;50.422;7.944;2023-02-28T07:25:00;5.80;;;5.23;;
2031;SDS011;27625;50.422;7.944;2023-02-28T07:27:27;6.60;;;5.10;;
2031;SDS011;27625;50.422;7.944;2023-02-28T07:30:03;7.43;;;4.90;;
2031;SDS011;27625;50.422;7.944;2023-02-28T07:32:30;8.10;;;5.10;;
2031;SDS011;27625;50.422;7.944;2023-02-28T07:35:03;6.60;;;4.87;;
2031;SDS011;27625;50.422;7.944;2023-02-28T07:40:02;6.07;;;5.03;;
2031;SDS011;27625;50.422;7.944;2023-02-28T07:42:32;7.60;;;5.00;;
2031;SDS011;27625;50.422;7.944;2023-02-28T07:45:08;5.23;;;4.63;;
2031;SDS011;27625;50.422;7.944;2023-02-28T07:47:41;6.10;;;4.93;;
2031;SDS011;27625;50.422;7.944;2023-02-28T07:50:09;5.57;;;4.90;;
2031;SDS011;27625;50.422;7.944;2023-02-28T07:52:37;6.60;;;5.20;;
2031;SDS011;27625;50.422;7.944;2023-02-28T07:55:05;7.67;;;5.50;;
2031;SDS011;27625;50.422;7.944;2023-02-28T07:57:35;5.77;;;4.83;;
2031;SDS011;27625;50.422;7.944;2023-02-28T08:00:02;8.97;;;5.47;;
2031;SDS011;27625;50.422;7.944;2023-02-28T08:02:38;7.23;;;4.43;;
2031;SDS011;27625;50.422;7.944;2023-02-28T08:05:05;7.67;;;5.50;;
2031;SDS011;27625;50.422;7.944;2023-02-28T08:07:32;6.23;;;5.00;;
2031;SDS011;27625;50.422;7.944;2023-02-28T08:10:07;7.27;;;4.87;;
2031;SDS011;27625;50.422;7.944;2023-02-28T08:12:35;5.93;;;4.53;;
2031;SDS011;27625;50.422;7.944;2023-02-28T08:15:03;8.50;;;5.30;;
2031;SDS011;27625;50.422;7.944;2023-02-28T08:17:29;6.30;;;5.20;;
2031;SDS011;27625;50.422;7.944;2023-02-28T08:20:00;5.87;;;4.80;;
2031;SDS011;27625;50.422;7.944;2023-02-28T08:22:29;5.83;;;4.77;;
2031;SDS011;27625;50.422;7.944;2023-02-28T08:24:56;7.17;;;5.70;;
2031;SDS011;27625;50.422;7.944;2023-02-28T08:27:25;5.90;;;4.60;;
2031;SDS011;27625;50.422;7.944;2023-02-28T08:29:52;5.40;;;4.23;;
2031;SDS011;27625;50.422;7.944;2023-02-28T08:32:21;5.30;;;4.53;;
2031;SDS011;27625;50.422;7.944;2023-02-28T08:34:49;6.20;;;5.10;;
2031;SDS011;27625;50.422;7.944;2023-02-28T08:37:18;6.03;;;4.80;;
2031;SDS011;27625;50.422;7.944;2023-02-28T08:39:50;5.90;;;4.50;;
2031;SDS011;27625;50.422;7.944;2023-02-28T08:42:21;6.73;;;4.70;;
2031;SDS011;27625;50.422;7.944;2023-02-28T08:44:48;6.20;;;4.60;;
2031;SDS011;27625;50.422;7.944;2023-02-28T08:47:14;5.53;;;4.60;;
2031;SDS011;27625;50.422;7.944;2023-02-28T08:49:44;7.40;;;5.20;;
2031;SDS011;27625;50.422;7.944;2023-02-28T08:52:11;6.13;;;4.90;;
2031;SDS011;27625;50.422;7.944;2023-02-28T08:54:39;6.03;;;4.20;;
2031;SDS011;27625;50.422;7.944;2023-02-28T08:57:06;6.37;;;4.70;;
2031;SDS011;27625;50.422;7.944;2023-02-28T08:59:32;6.17;;;4.80;;
2031;SDS011;27625;50.422;7.944;2023-02-28T09:01:59;5.37;;;4.17;;
2031;SDS011;27625;50.422;7.944;2023-02-28T09:04:26;5.93;;;4.27;;
2031;SDS011;27625;50.422;7.944;2023-02-28T09:06:56;6.30;;;4.53;;
2031;SDS011;27625;50.422;7.944;2023-02-28T09:11:56;6.17;;;4.40;;
2031;SDS011;27625;50.422;7.944;2023-02-28T09:14:35;6.47;;;4.37;;
2031;SDS011;27625;50.422;7.944;2023-02-28T09:17:03;6.60;;;4.23;;
2031;SDS011;27625;50.422;7.944;2023-02-28T09:19:37;5.87;;;4.87;;
2031;SDS011;27625;50.422;7.944;2023-02-28T09:22:04;5.50;;;4.20;;
2031;SDS011;27625;50.422;7.944;2023-02-28T09:24:33;6.10;;;4.43;;
2031;SDS011;27625;50.422;7.944;2023-02-28T09:27:15;5.70;;;4.50;;
2031;SDS011;27625;50.422;7.944;2023-02-28T09:32:18;6.00;;;4.27;;
2031;SDS011;27625;50.422;7.944;2023-02-28T09:34:49;7.10;;;3.80;;
2031;SDS011;27625;50.422;7.944;2023-02-28T09:37:16;4.77;;;4.23;;
2031;SDS011;27625;50.422;7.944;2023-02-28T09:39:46;5.97;;;4.30;;
2031;SDS011;27625;50.422;7.944;2023-02-28T09:42:20;6.63;;;4.23;;
2031;SDS011;27625;50.422;7.944;2023-02-28T09:44:49;5.83;;;4.33;;
2031;SDS011;27625;50.422;7.944;2023-02-28T09:47:18;5.13;;;4.50;;
2031;SDS011;27625;50.422;7.944;2023-02-28T09:49:54;6.63;;;4.33;;
2031;SDS011;27625;50.422;7.944;2023-02-28T09:52:26;5.17;;;4.00;;
2031;SDS011;27625;50.422;7.944;2023-02-28T09:54:55;4.63;;;3.50;;
2031;SDS011;27625;50.422;7.944;2023-02-28T09:59:58;5.30;;;4.40;;
2031;SDS011;27625;50.422;7.944;2023-02-28T10:02:51;5.17;;;4.23;;
2031;SDS011;27625;50.422;7.944;2023-02-28T10:05:29;6.10;;;4.07;;
2031;SDS011;27625;50.422;7.944;2023-02-28T10:08:00;5.40;;;4.23;;
2031;SDS011;27625;50.422;7.944;2023-02-28T10:10:39;5.47;;;3.93;;
2031;SDS011;27625;50.422;7.944;2023-02-28T10:13:21;7.40;;;5.00;;
2031;SDS011;27625;50.422;7.944;2023-02-28T10:15:58;5.37;;;4.30;;
2031;SDS011;27625;50.422;7.944;2023-02-28T10:18:30;5.10;;;3.73;;
2031;SDS011;27625;50.422;7.944;2023-02-28T10:21:13;6.30;;;4.60;;
2031;SDS011;27625;50.422;7.944;2023-02-28T10:23:44;5.67;;;4.60;;
2031;SDS011;27625;50.422;7.944;2023-02-28T10:26:14;7.10;;;5.00;;
2031;SDS011;27625;50.422;7.944;2023-02-28T10:28:44;5.60;;;4.30;;
2031;SDS011;27625;50.422;7.944;2023-02-28T10:33:45;6.30;;;4.50;;
2031;SDS011;27625;50.422;7.944;2023-02-28T10:36:14;7.00;;;4.80;;
2031;SDS011;27625;50.422;7.944;2023-02-28T10:38:42;6.00;;;4.53;;
2031;SDS011;27625;50.422;7.944;2023-02-28T10:41:11;5.30;;;4.53;;
2031;SDS011;27625;50.422;7.944;2023-02-28T10:43:40;6.50;;;5.10;;
2031;SDS011;27625;50.422;7.944;2023-02-28T10:46:14;6.53;;;4.57;;
2031;SDS011;27625;50.422;7.944;2023-02-28T10:49:02;5.10;;;4.20;;
2031;SDS011;27625;50.422;7.944;2023-02-28T10:51:40;6.40;;;4.43;;
2031;SDS011;27625;50.422;7.944;2023-02-28T10:54:13;6.70;;;5.20;;
2031;SDS011;27625;50.422;7.944;2023-02-28T10:56:41;8.83;;;4.83;;
2031;SDS011;27625;50.422;7.944;2023-02-28T10:59:22;6.40;;;5.50;;
2031;SDS011;27625;50.422;7.944;2023-02-28T11:01:54;6.33;;;5.13;;
2031;SDS011;27625;50.422;7.944;2023-02-28T11:04:31;6.20;;;5.20;;
2031;SDS011;27625;50.422;7.944;2023-02-28T11:07:01;5.70;;;4.60;;
2031;SDS011;27625;50.422;7.944;2023-02-28T11:09:30;6.63;;;5.37;;
2031;SDS011;27625;50.422;7.944;2023-02-28T11:12:07;4.90;;;4.30;;
2031;SDS011;27625;50.422;7.944;2023-02-28T11:14:47;6.87;;;5.30;;
2031;SDS011;27625;50.422;7.944;2023-02-28T11:17:19;8.13;;;4.87;;
2031;SDS011;27625;50.422;7.944;2023-02-28T11:19:48;6.20;;;4.90;;
2031;SDS011;27625;50.422;7.944;2023-02-28T11:22:17;10.07;;;5.00;;
2031;SDS011;27625;50.422;7.944;2023-02-28T11:24:46;6.00;;;4.83;;
2031;SDS011;27625;50.422;7.944;2023-02-28T11:30:27;6.03;;;4.97;;
2031;SDS011;27625;50.422;7.944;2023-02-28T11:32:59;6.13;;;4.50;;
2031;SDS011;27625;50.422;7.944;2023-02-28T11:35:39;5.80;;;4.73;;
2031;SDS011;27625;50.422;7.944;2023-02-28T11:38:07;6.47;;;5.13;;
2031;SDS011;27625;50.422;7.944;2023-02-28T11:40:43;5.50;;;4.73;;
2031;SDS011;27625;50.422;7.944;2023-02-28T11:43:22;6.50;;;4.70;;
2031;SDS011;27625;50.422;7.944;2023-02-28T11:46:09;6.30;;;5.10;;
2031;SDS011;27625;50.422;7.944;2023-02-28T11:48:45;7.00;;;4.90;;
2031;SDS011;27625;50.422;7.944;2023-02-28T11:51:23;8.30;;;5.27;;
2031;SDS011;27625;50.422;7.944;2023-02-28T11:54:02;6.70;;;5.50;;
2031;SDS011;27625;50.422;7.944;2023-02-28T11:56:37;7.40;;;5.70;;
2031;SDS011;27625;50.422;7.944;2023-02-28T11:59:18;5.60;;;4.47;;
2031;SDS011;27625;50.422;7.944;2023-02-28T12:02:03;6.70;;;5.00;;
2031;SDS011;27625;50.422;7.944;2023-02-28T12:04:38;6.40;;;4.90;;
2031;SDS011;27625;50.422;7.944;2023-02-28T12:07:11;5.73;;;5.13;;
2031;SDS011;27625;50.422;7.944;2023-02-28T12:09:46;7.40;;;5.77;;
2031;SDS011;27625;50.422;7.944;2023-02-28T12:12:23;6.20;;;5.20;;
2031;SDS011;27625;50.422;7.944;2023-02-28T12:18:07;6.57;;;5.10;;
2031;SDS011;27625;50.422;7.944;2023-02-28T12:20:42;7.20;;;5.70;;
2031;SDS011;27625;50.422;7.944;2023-02-28T12:23:19;7.13;;;5.63;;
2031;SDS011;27625;50.422;7.944;2023-02-28T12:25:55;9.17;;;6.00;;
2031;SDS011;27625;50.422;7.944;2023-02-28T12:31:14;7.10;;;5.20;;
2031;SDS011;27625;50.422;7.944;2023-02-28T12:33:48;6.80;;;5.40;;
2031;SDS011;27625;50.422;7.944;2023-02-28T12:36:19;6.80;;;5.70;;
2031;SDS011;27625;50.422;7.944;2023-02-28T12:38:51;8.90;;;6.23;;
2031;SDS011;27625;50.422;7.944;2023-02-28T12:41:22;7.40;;;6.27;;
2031;SDS011;27625;50.422;7.944;2023-02-28T12:43:55;7.63;;;5.87;;
2031;SDS011;27625;50.422;7.944;2023-02-28T12:46:30;7.67;;;6.03;;
2031;SDS011;27625;50.422;7.944;2023-02-28T12:48:59;6.30;;;4.67;;
2031;SDS011;27625;50.422;7.944;2023-02-28T12:51:36;7.20;;;5.87;;
2031;SDS011;27625;50.422;7.944;2023-02-28T12:54:09;6.73;;;5.63;;
2031;SDS011;27625;50.422;7.944;2023-02-28T12:56:42;6.60;;;5.87;;
2031;SDS011;27625;50.422;7.944;2023-02-28T12:59:14;7.57;;;6.50;;
2031;SDS011;27625;50.422;7.944;2023-02-28T13:02:00;7.33;;;5.93;;
2031;SDS011;27625;50.422;7.944;2023-02-28T13:04:47;6.93;;;6.00;;
2031;SDS011;27625;50.422;7.944;2023-02-28T13:10:39;8.20;;;6.43;;
2031;SDS011;27625;50.422;7.944;2023-02-28T13:13:13;7.20;;;6.30;;
2031;SDS011;27625;50.422;7.944;2023-02-28T13:15:56;8.33;;;6.10;;
2031;SDS011;27625;50.422;7.944;2023-02-28T13:18:28;8.70;;;7.90;;
2031;SDS011;27625;50.422;7.944;2023-02-28T13:20:57;10.93;;;6.17;;
2031;SDS011;27625;50.422;7.944;2023-02-28T13:23:39;7.97;;;5.70;;
2031;SDS011;27625;50.422;7.944;2023-02-28T13:26:07;7.83;;;6.00;;
2031;SDS011;27625;50.422;7.944;2023-02-28T13:28:57;7.80;;;6.23;;
2031;SDS011;27625;50.422;7.944;2023-02-28T13:31:26;8.40;;;6.50;;
2031;SDS011;27625;50.422;7.944;2023-02-28T13:36:40;7.87;;;6.13;;
2031;SDS011;27625;50.422;7.944;2023-02-28T13:42:32;11.67;;;7.23;;
2031;SDS011;27625;50.422;7.944;2023-02-28T13:48:00;7.83;;;6.57;;
2031;SDS011;27625;50.422;7.944;2023-02-28T13:50:36;9.30;;;6.50;;
2031;SDS011;27625;50.422;7.944;2023-02-28T13:56:25;10.20;;;7.13;;
2031;SDS011;27625;50.422;7.944;2023-02-28T13:58:58;27.27;;;8.67;;
2031;SDS011;27625;50.422;7.944;2023-02-28T14:07:06;9.20;;;6.40;;
2031;SDS011;27625;50.422;7.944;2023-02-28T14:09:34;15.53;;;7.93;;
2031;SDS011;27625;50.422;7.944;2023-02-28T14:15:18;13.00;;;6.93;;
2031;SDS011;27625;50.422;7.944;2023-02-28T14:17:59;7.73;;;6.57;;
2031;SDS011;27625;50.422;7.944;2023-02-28T14:20:29;7.60;;;6.80;;
2031;SDS011;27625;50.422;7.944;2023-02-28T14:23:06;7.60;;;6.17;;
2031;SDS011;27625;50.422;7.944;2023-02-28T14:25:39;9.30;;;7.00;;
2031;SDS011;27625;50.422;7.944;2023-02-28T14:28:17;8.80;;;6.77;;
2031;SDS011;27625;50.422;7.944;2023-02-28T14:30:59;8.07;;;6.80;;
2031;SDS011;27625;50.422;7.944;2023-02-28T14:36:31;8.00;;;6.37;;
2031;SDS011;27625;50.422;7.944;2023-02-28T14:38:59;8.00;;;6.50;;
2031;SDS011;27625;50.422;7.944;2023-02-28T14:41:29;7.63;;;5.90;;
2031;SDS011;27625;50.422;7.944;2023-02-28T14:43:59;9.80;;;6.70;;
2031;SDS011;27625;50.422;7.944;2023-02-28T14:46:28;9.27;;;7.03;;
2031;SDS011;27625;50.422;7.944;2023-02-28T14:48:58;9.03;;;6.70;;
2031;SDS011;27625;50.422;7.944;2023-02-28T14:51:25;9.37;;;6.97;;
2031;SDS011;27625;50.422;7.944;2023-02-28T14:53:55;10.70;;;6.40;;
2031;SDS011;27625;50.422;7.944;2023-02-28T14:56:24;10.40;;;7.80;;
2031;SDS011;27625;50.422;7.944;2023-02-28T14:58:55;10.30;;;6.53;;
2031;SDS011;27625;50.422;7.944;2023-02-28T15:01:23;9.37;;;6.00;;
2031;SDS011;27625;50.422;7.944;2023-02-28T15:04:00;8.00;;;6.40;;
2031;SDS011;27625;50.422;7.944;2023-02-28T15:06:29;8.33;;;6.23;;
2031;SDS011;27625;50.422;7.944;2023-02-28T15:14:17;11.33;;;7.27;;
2031;SDS011;27625;50.422;7.944;2023-02-28T15:16:46;8.23;;;6.17;;
2031;SDS011;27625;50.422;7.944;2023-02-28T15:19:19;10.63;;;6.00;;
2031;SDS011;27625;50.422;7.944;2023-02-28T15:21:49;6.93;;;5.67;;
2031;SDS011;27625;50.422;7.944;2023-02-28T15:24:35;8.83;;;6.73;;
2031;SDS011;27625;50.422;7.944;2023-02-28T15:27:11;11.20;;;7.17;;
2031;SDS011;27625;50.422;7.944;2023-02-28T15:29:42;8.53;;;6.80;;
2031;SDS011;27625;50.422;7.944;2023-02-28T15:32:20;9.00;;;6.20;;
2031;SDS011;27625;50.422;7.944;2023-02-28T15:34:51;8.10;;;6.30;;
2031;SDS011;27625;50.422;7.944;2023-02-28T15:37:33;10.10;;;6.60;;
2031;SDS011;27625;50.422;7.944;2023-02-28T15:40:11;9.30;;;6.90;;
2031;SDS011;27625;50.422;7.944;2023-02-28T15:45:32;7.87;;;6.30;;
2031;SDS011;27625;50.422;7.944;2023-02-28T15:48:02;8.63;;;6.70;;
2031;SDS011;27625;50.422;7.944;2023-02-28T15:50:36;10.43;;;7.10;;
2031;SDS011;27625;50.422;7.944;2023-02-28T15:55:39;12.47;;;6.40;;
2031;SDS011;27625;50.422;7.944;2023-02-28T15:58:13;8.53;;;6.70;;
2031;SDS011;27625;50.422;7.944;2023-02-28T16:00:40;10.97;;;6.70;;
2031;SDS011;27625;50.422;7.944;2023-02-28T16:03:24;10.03;;;6.63;;
2031;SDS011;27625;50.422;7.944;2023-02-28T16:08:55;7.50;;;6.43;;
2031;SDS011;27625;50.422;7.944;2023-02-28T16:11:21;8.33;;;6.47;;
2031;SDS011;27625;50.422;7.944;2023-02-28T16:13:49;10.63;;;6.40;;
2031;SDS011;27625;50.422;7.944;2023-02-28T16:16:19;9.70;;;7.30;;
2031;SDS011;27625;50.422;7.944;2023-02-28T16:18:48;9.90;;;6.10;;
2031;SDS011;27625;50.422;7.944;2023-02-28T16:21:15;8.50;;;6.80;;
2031;SDS011;27625;50.422;7.944;2023-02-28T16:23:45;10.63;;;7.47;;
2031;SDS011;27625;50.422;7.944;2023-02-28T16:26:14;7.87;;;6.73;;
2031;SDS011;27625;50.422;7.944;2023-02-28T16:28:46;10.73;;;7.10;;
2031;SDS011;27625;50.422;7.944;2023-02-28T16:31:14;9.20;;;7.20;;
2031;SDS011;27625;50.422;7.944;2023-02-28T16:33:44;11.90;;;7.50;;
2031;SDS011;27625;50.422;7.944;2023-02-28T16:36:18;8.53;;;6.80;;
2031;SDS011;27625;50.422;7.944;2023-02-28T16:38:47;9.30;;;7.07;;
2031;SDS011;27625;50.422;7.944;2023-02-28T16:41:16;9.33;;;7.17;;
2031;SDS011;27625;50.422;7.944;2023-02-28T16:43:45;9.53;;;7.27;;
2031;SDS011;27625;50.422;7.944;2023-02-28T16:46:13;9.87;;;7.80;;
2031;SDS011;27625;50.422;7.944;2023-02-28T16:48:42;9.60;;;7.70;;
2031;SDS011;27625;50.422;7.944;2023-02-28T16:51:14;11.67;;;7.90;;